createdAt,value
2022-08-05T01:27:33.148Z,21.13
2022-08-05T01:31:34.315Z,21.07
2022-08-05T02:02:38.429Z,20.70
2022-08-05T02:32:23.674Z,20.46
2022-08-05T02:35:56.295Z,20.45
2022-08-05T02:42:54.279Z,20.40
2022-08-05T02:46:17.860Z,20.37
2022-08-05T03:04:03.383Z,20.11
2022-08-05T03:11:57.390Z,20.02
2022-08-05T03:15:06.883Z,19.99
2022-08-05T03:18:42.770Z,20.04
2022-08-05T03:22:49.913Z,20.03
2022-08-05T03:29:17.280Z,20.00
2022-08-05T03:32:30.737Z,19.95
2022-08-05T03:43:58.261Z,19.87
2022-08-05T03:47:09.002Z,19.84
2022-08-05T03:55:54.685Z,19.85
2022-08-05T05:01:09.123Z,31.50
2022-08-05T05:03:42.188Z,31.85
2022-08-05T05:06:40.671Z,32.01
2022-08-05T05:09:01.813Z,32.24
2022-08-05T05:11:52.884Z,32.72
2022-08-05T05:14:27.720Z,32.96
2022-08-05T05:17:02.006Z,32.75
2022-08-05T05:19:36.777Z,32.32
2022-08-05T05:22:23.468Z,31.73
2022-08-05T05:24:58.535Z,30.66
2022-08-05T05:27:41.799Z,29.55
2022-08-05T05:30:30.854Z,28.75
2022-08-05T05:33:16.518Z,27.99
2022-08-05T05:35:47.934Z,27.25
2022-08-05T05:38:22.191Z,26.92
2022-08-05T05:40:58.702Z,26.70
2022-08-05T05:43:54.583Z,26.54
2022-08-05T05:46:18.166Z,26.50
2022-08-05T05:48:49.035Z,26.44
2022-08-05T05:51:23.462Z,26.31
2022-08-05T05:53:57.566Z,26.24
2022-08-05T05:56:34.684Z,26.12
2022-08-05T05:59:07.009Z,26.06
2022-08-05T06:01:40.610Z,25.94
2022-08-05T06:04:26.147Z,25.82
2022-08-05T06:06:55.384Z,25.83
2022-08-05T06:09:52.579Z,25.71
2022-08-05T06:12:19.619Z,25.58
2022-08-05T06:14:48.763Z,25.58
2022-08-05T06:17:24.654Z,25.63
2022-08-05T06:20:00.446Z,25.74
2022-08-05T06:22:33.980Z,25.81
2022-08-05T06:25:59.040Z,25.95
2022-08-05T06:28:12.249Z,26.11
2022-08-05T06:30:43.564Z,26.24
2022-08-05T06:33:12.442Z,26.22
2022-08-05T06:36:07.488Z,26.21
2022-08-05T06:38:37.146Z,26.03
2022-08-05T06:41:08.007Z,25.95
2022-08-05T06:43:58.405Z,25.98
2022-08-05T06:46:30.269Z,26.15
2022-08-05T06:49:02.031Z,26.34
2022-08-05T06:51:34.493Z,26.51
2022-08-05T06:54:05.923Z,26.70
2022-08-05T06:56:37.442Z,26.76
2022-08-05T06:59:09.917Z,26.83
2022-08-05T07:01:42.475Z,26.98
2022-08-05T07:04:14.053Z,27.08
2022-08-05T07:06:43.045Z,27.18
2022-08-05T07:09:11.802Z,27.34
2022-08-05T07:11:49.482Z,27.48
2022-08-05T07:14:38.884Z,27.61
2022-08-05T07:17:58.836Z,27.70
2022-08-05T07:20:31.619Z,27.77
2022-08-05T07:22:47.937Z,27.81
2022-08-05T07:25:55.384Z,27.94
2022-08-05T07:28:11.750Z,28.07
2022-08-05T07:30:50.377Z,28.13
2022-08-05T07:33:35.027Z,28.23
2022-08-05T07:36:19.759Z,28.38
2022-08-05T07:38:54.882Z,28.50
2022-08-05T07:42:13.074Z,28.44
2022-08-05T07:44:18.928Z,28.53
2022-08-05T07:46:50.312Z,28.75
2022-08-05T07:49:20.766Z,28.93
2022-08-05T07:51:53.644Z,29.05
2022-08-05T07:54:30.884Z,29.09
2022-08-05T07:57:22.389Z,29.16
2022-08-05T07:59:53.527Z,29.27
2022-08-05T08:02:31.313Z,29.37
2022-08-05T08:05:18.702Z,29.57
2022-08-05T08:07:59.489Z,29.59
2022-08-05T08:10:30.232Z,29.74
2022-08-05T08:12:59.185Z,29.87
2022-08-05T08:16:33.605Z,30.00
2022-08-05T08:18:21.256Z,30.08
2022-08-05T08:21:02.740Z,30.11
2022-08-05T08:24:02.488Z,30.15
2022-08-05T08:26:27.101Z,30.33
2022-08-05T08:29:22.229Z,30.54
2022-08-05T08:31:51.324Z,30.56
2022-08-05T08:34:30.358Z,30.47
2022-08-05T08:37:04.989Z,30.63
2022-08-05T08:39:37.751Z,30.64
2022-08-05T08:42:33.718Z,30.76
2022-08-05T08:45:22.543Z,30.87
2022-08-05T08:48:06.847Z,31.03
2022-08-05T08:51:03.238Z,31.20
2022-08-05T08:53:40.326Z,31.24
2022-08-05T08:56:14.169Z,31.35
2022-08-05T08:58:47.708Z,31.37
2022-08-05T09:01:19.187Z,31.38
2022-08-05T09:03:57.465Z,31.44
2022-08-05T09:06:31.163Z,31.46
2022-08-05T09:09:02.398Z,31.50
2022-08-05T09:11:50.910Z,31.57
2022-08-05T09:14:56.383Z,31.58
2022-08-05T09:17:42.442Z,31.69
2022-08-05T09:20:08.375Z,31.75
2022-08-05T09:23:18.697Z,31.73
2022-08-05T09:26:05.986Z,31.83
2022-08-05T09:28:38.393Z,31.94
2022-08-05T09:31:22.366Z,32.08
2022-08-05T09:34:10.376Z,32.13
2022-08-05T09:36:56.205Z,32.19
2022-08-05T09:39:44.785Z,32.17
2022-08-05T09:42:23.583Z,32.23
2022-08-05T09:46:05.234Z,32.30
2022-08-05T09:47:56.765Z,32.39
2022-08-05T09:50:44.673Z,32.52
2022-08-05T09:53:22.888Z,32.63
2022-08-05T09:56:03.653Z,32.63
2022-08-05T09:58:32.829Z,32.71
2022-08-05T10:01:15.222Z,32.82
2022-08-05T10:04:14.108Z,32.88
2022-08-05T10:06:58.801Z,32.92
2022-08-05T10:09:30.741Z,33.05
2022-08-05T10:12:18.664Z,33.20
2022-08-05T10:15:34.201Z,33.25
2022-08-05T10:18:21.844Z,33.29
2022-08-05T10:20:54.765Z,33.30
2022-08-05T10:23:55.393Z,33.28
2022-08-05T10:26:51.686Z,33.28
2022-08-05T10:29:11.486Z,33.35
2022-08-05T10:33:00.862Z,33.40
2022-08-05T10:34:31.173Z,33.47
2022-08-05T10:37:01.062Z,33.47
2022-08-05T10:40:04.277Z,33.45
2022-08-05T10:42:33.688Z,33.53
2022-08-05T10:45:21.467Z,33.56
2022-08-05T10:48:30.094Z,33.68
2022-08-05T10:51:04.963Z,33.82
2022-08-05T10:53:52.844Z,33.98
2022-08-05T10:56:27.291Z,34.07
2022-08-05T10:59:11.389Z,34.16
2022-08-05T11:02:04.733Z,34.13
2022-08-05T11:04:46.584Z,34.10
2022-08-05T11:07:18.801Z,33.98
2022-08-05T11:10:10.006Z,34.09
2022-08-05T11:12:50.390Z,34.22
2022-08-05T11:16:00.325Z,34.30
2022-08-05T11:18:34.131Z,34.57
2022-08-05T11:21:11.678Z,34.70
2022-08-05T11:24:04.359Z,34.66
2022-08-05T11:26:49.406Z,34.60
2022-08-05T11:29:41.610Z,34.55
2022-08-05T11:32:30.603Z,34.58
2022-08-05T11:34:59.342Z,34.52
2022-08-05T11:38:36.492Z,34.59
2022-08-05T11:41:12.805Z,34.72
2022-08-05T11:44:07.355Z,34.75
2022-08-05T11:46:58.354Z,34.79
2022-08-05T11:49:39.923Z,34.84
2022-08-05T11:52:12.233Z,34.86
2022-08-05T11:54:43.528Z,34.83
2022-08-05T11:57:25.501Z,34.76
2022-08-05T11:59:59.760Z,34.69
2022-08-05T12:02:36.142Z,34.69
2022-08-05T12:05:18.164Z,34.68
2022-08-05T12:08:09.137Z,34.69
2022-08-05T12:10:45.371Z,34.73
2022-08-05T12:13:47.356Z,34.74
2022-08-05T12:16:14.590Z,34.80
2022-08-05T12:18:52.466Z,34.80
2022-08-05T12:21:29.982Z,34.77
2022-08-05T12:24:07.886Z,34.74
2022-08-05T12:26:43.974Z,34.76
2022-08-05T12:29:23.666Z,34.78
2022-08-05T12:32:15.994Z,34.72
2022-08-05T12:34:45.782Z,34.78
2022-08-05T12:37:31.787Z,34.81
2022-08-05T12:40:03.648Z,34.83
2022-08-05T12:42:41.008Z,34.90
2022-08-05T12:45:11.603Z,34.93
2022-08-05T12:47:43.511Z,34.96
2022-08-05T12:50:33.581Z,35.05
2022-08-05T12:53:03.583Z,35.04
2022-08-05T12:55:35.416Z,34.96
2022-08-05T12:58:38.769Z,35.00
2022-08-05T13:02:00.181Z,35.06
2022-08-05T13:03:49.301Z,35.09
2022-08-05T13:06:20.364Z,35.09
2022-08-05T13:09:27.956Z,35.08
2022-08-05T13:12:16.210Z,35.08
2022-08-05T13:15:06.205Z,35.00
2022-08-05T13:17:41.362Z,35.06
2022-08-05T13:20:23.610Z,35.14
2022-08-05T13:22:54.484Z,35.07
2022-08-05T13:25:59.729Z,35.06
2022-08-05T13:28:17.033Z,35.22
2022-08-05T13:30:48.459Z,35.17
2022-08-05T13:34:25.095Z,35.09
2022-08-05T13:36:11.297Z,34.95
2022-08-05T13:38:43.416Z,35.00
2022-08-05T13:41:38.268Z,34.92
2022-08-05T13:44:08.122Z,34.81
2022-08-05T13:47:04.860Z,34.82
2022-08-05T13:49:28.103Z,34.97
2022-08-05T13:52:12.626Z,35.11
2022-08-05T13:54:42.665Z,35.21
2022-08-05T13:57:22.851Z,35.27
2022-08-05T13:59:57.128Z,35.27
2022-08-05T14:02:31.378Z,35.22
2022-08-05T14:05:12.156Z,35.13
2022-08-05T14:08:04.369Z,35.25
2022-08-05T14:10:37.464Z,35.31
2022-08-05T14:13:09.722Z,35.29
2022-08-05T14:16:04.403Z,35.42
2022-08-05T14:18:29.852Z,35.41
2022-08-05T14:21:01.400Z,35.23
2022-08-05T14:23:50.405Z,35.17
2022-08-05T14:26:35.617Z,35.13
2022-08-05T14:29:16.810Z,35.13
2022-08-05T14:32:03.157Z,35.32
2022-08-05T14:34:36.025Z,35.46
2022-08-05T14:37:06.581Z,35.64
2022-08-05T14:39:49.363Z,35.34
2022-08-05T14:42:25.014Z,35.31
2022-08-05T14:44:58.382Z,35.38
2022-08-05T14:48:03.103Z,35.31
2022-08-05T14:50:19.470Z,35.37
2022-08-05T14:52:56.742Z,35.40
2022-08-05T14:55:39.162Z,35.42
2022-08-05T14:58:11.975Z,35.36
2022-08-05T15:00:59.457Z,35.39
2022-08-05T15:03:34.042Z,35.41
2022-08-05T15:06:15.501Z,35.36
2022-08-05T15:08:59.810Z,35.28
2022-08-05T15:11:51.490Z,35.13
2022-08-05T15:14:34.615Z,35.21
2022-08-05T15:17:10.055Z,35.27
2022-08-05T15:20:01.143Z,34.98
2022-08-05T15:22:30.483Z,34.88
2022-08-05T15:25:13.666Z,34.89
2022-08-05T15:27:52.386Z,35.08
2022-08-05T15:30:24.591Z,35.21
2022-08-05T15:32:56.423Z,35.24
2022-08-05T15:35:26.922Z,35.33
2022-08-05T15:38:32.266Z,35.38
2022-08-05T15:41:20.745Z,35.40
2022-08-05T15:43:46.092Z,35.42
2022-08-05T15:46:16.634Z,35.30
2022-08-05T15:48:52.675Z,35.34
2022-08-05T15:52:12.689Z,35.33
2022-08-05T15:54:21.622Z,35.25
2022-08-05T15:57:07.587Z,35.24
2022-08-05T15:59:38.188Z,35.32
2022-08-05T16:02:14.909Z,35.33
2022-08-05T16:04:54.470Z,35.37
2022-08-05T16:07:23.127Z,35.43
2022-08-05T16:09:54.392Z,35.52
2022-08-05T16:12:26.044Z,35.55
2022-08-05T16:14:57.927Z,35.45
2022-08-05T16:17:28.864Z,35.45
2022-08-05T16:20:04.738Z,35.53
2022-08-05T16:22:42.484Z,35.51
2022-08-05T16:25:12.204Z,35.44
2022-08-05T16:27:59.644Z,35.18
2022-08-05T16:30:36.173Z,34.62
2022-08-05T16:33:05.945Z,34.15
2022-08-05T16:35:42.508Z,33.83
2022-08-05T16:38:18.880Z,33.36
2022-08-05T16:41:00.561Z,32.82
2022-08-05T16:43:34.744Z,32.35
2022-08-05T16:46:23.468Z,32.13
2022-08-05T16:48:53.964Z,32.06
2022-08-05T16:51:27.366Z,31.82
2022-08-05T16:54:16.121Z,31.40
2022-08-05T16:56:48.565Z,31.23
2022-08-05T16:59:22.338Z,30.94
2022-08-05T17:01:53.709Z,30.54
2022-08-05T17:04:30.851Z,30.31
2022-08-05T17:07:11.398Z,30.35
2022-08-05T17:09:58.093Z,30.22
2022-08-05T17:12:51.034Z,30.01
2022-08-05T17:15:29.330Z,29.86
2022-08-05T17:18:19.112Z,29.66
2022-08-05T17:20:57.404Z,29.30
2022-08-05T17:24:04.635Z,29.18
2022-08-05T17:26:32.324Z,29.30
2022-08-05T17:29:09.965Z,29.30
2022-08-05T17:31:58.206Z,29.24
2022-08-05T17:34:29.731Z,29.08
2022-08-05T17:37:01.185Z,29.24
2022-08-05T17:39:34.367Z,29.15
2022-08-05T17:42:19.922Z,29.17
2022-08-05T17:44:56.750Z,29.04
2022-08-05T17:47:26.822Z,29.04
2022-08-05T17:50:03.494Z,28.93
2022-08-05T17:52:34.695Z,29.16
2022-08-05T17:55:34.712Z,29.61
2022-08-05T17:58:16.158Z,30.11
2022-08-05T18:00:51.046Z,30.54
2022-08-05T18:03:56.109Z,30.73
2022-08-05T18:06:18.749Z,30.71
2022-08-05T18:09:03.555Z,30.68
2022-08-05T18:11:34.544Z,30.67
2022-08-05T18:14:13.370Z,30.69
2022-08-05T18:16:51.293Z,30.68
2022-08-05T18:19:28.094Z,30.70
2022-08-05T18:22:07.332Z,30.71
2022-08-05T18:24:41.704Z,30.69
2022-08-05T18:27:18.069Z,30.60
2022-08-05T18:29:54.169Z,30.54
2022-08-05T18:32:27.835Z,30.41
2022-08-05T18:34:58.824Z,30.21
2022-08-05T18:37:34.365Z,30.11
2022-08-05T18:41:52.740Z,30.03
2022-08-05T18:43:09.084Z,29.90
2022-08-05T18:45:49.863Z,29.79
2022-08-05T18:48:30.428Z,29.71
2022-08-05T18:52:06.258Z,29.61
2022-08-05T18:54:09.406Z,29.51
2022-08-05T18:56:38.509Z,29.36
2022-08-05T18:59:42.941Z,29.16
2022-08-05T19:01:56.964Z,29.02
2022-08-05T19:04:27.462Z,28.93
2022-08-05T19:06:56.223Z,28.86
2022-08-05T19:09:24.991Z,28.81
2022-08-05T19:11:59.426Z,28.74
2022-08-05T19:14:52.098Z,28.64
2022-08-05T19:17:20.863Z,28.54
2022-08-05T19:19:50.923Z,28.48
2022-08-05T19:22:22.757Z,28.40
2022-08-05T19:25:00.985Z,28.27
2022-08-05T19:27:31.682Z,28.18
2022-08-05T19:30:02.843Z,28.10
2022-08-05T19:32:31.817Z,27.99
2022-08-05T19:35:05.915Z,27.89
2022-08-05T19:38:04.705Z,27.80
2022-08-05T19:40:25.905Z,27.69
2022-08-05T19:43:00.856Z,27.62
2022-08-05T19:45:36.867Z,27.51
2022-08-05T19:48:07.138Z,27.45
2022-08-05T19:50:45.242Z,27.36
2022-08-05T19:53:14.444Z,27.28
2022-08-05T19:56:15.567Z,27.15
2022-08-05T19:58:32.045Z,27.03
2022-08-05T20:01:28.636Z,26.92
2022-08-05T20:03:58.648Z,26.80
2022-08-05T20:06:29.459Z,26.72
2022-08-05T20:09:02.075Z,26.66
2022-08-05T20:11:48.323Z,26.60
2022-08-05T20:14:27.182Z,26.55
2022-08-05T20:16:58.926Z,26.50
2022-08-05T20:19:35.997Z,26.48
2022-08-05T20:22:06.523Z,26.43
2022-08-05T20:24:38.487Z,26.36
2022-08-05T20:27:11.534Z,26.31
2022-08-05T20:29:42.258Z,26.22
2022-08-05T20:32:29.694Z,26.16
2022-08-05T20:34:59.806Z,26.10
2022-08-05T20:38:05.875Z,26.03
2022-08-05T20:40:28.885Z,25.96
2022-08-05T20:43:07.105Z,25.89
2022-08-05T20:45:56.467Z,25.83
2022-08-05T20:48:28.083Z,25.77
2022-08-05T20:50:58.105Z,25.70
2022-08-05T20:53:36.494Z,25.64
2022-08-05T20:56:09.531Z,25.61
2022-08-05T20:58:41.294Z,25.57
2022-08-05T21:01:11.292Z,25.53
2022-08-05T21:03:48.355Z,25.52
2022-08-05T21:06:28.755Z,25.49
2022-08-05T21:09:00.361Z,25.49
2022-08-05T21:12:07.280Z,25.48
2022-08-05T21:14:23.254Z,25.46
2022-08-05T21:17:00.865Z,25.43
2022-08-05T21:19:47.605Z,25.42
2022-08-05T21:22:23.225Z,25.41
2022-08-05T21:24:56.974Z,25.38
2022-08-05T21:27:27.376Z,25.14
2022-08-05T21:29:57.485Z,24.45
2022-08-05T21:32:29.260Z,23.74
2022-08-05T21:35:17.595Z,23.26
2022-08-05T21:37:53.297Z,22.99
2022-08-05T21:40:26.705Z,22.75
2022-08-05T21:42:56.202Z,22.73
2022-08-05T21:45:51.580Z,22.82
2022-08-05T21:48:18.303Z,22.94
2022-08-05T21:50:54.101Z,23.06
2022-08-05T21:53:27.203Z,23.14
2022-08-05T21:56:09.931Z,23.15
2022-08-05T21:58:57.247Z,23.22
2022-08-05T22:01:59.599Z,23.24
2022-08-05T22:05:04.793Z,23.30
2022-08-05T22:08:54.223Z,23.36
2022-08-05T22:12:50.878Z,23.32
2022-08-05T22:16:04.881Z,23.23
2022-08-05T22:20:13.210Z,23.14
2022-08-05T22:22:56.931Z,23.05
2022-08-05T22:26:09.938Z,23.02
2022-08-05T22:29:15.683Z,23.01
2022-08-05T22:32:17.456Z,23.00
2022-08-05T22:35:21.588Z,22.99
2022-08-05T22:38:23.331Z,22.98
2022-08-05T22:42:11.511Z,22.96
2022-08-05T22:52:05.414Z,22.98
2022-08-05T22:55:18.897Z,23.03
2022-08-05T22:58:28.213Z,23.03
2022-08-05T23:02:03.805Z,23.03
2022-08-05T23:04:52.593Z,23.02
2022-08-05T23:07:57.373Z,23.00
2022-08-05T23:10:59.255Z,23.02
2022-08-05T23:14:01.589Z,23.06
2022-08-05T23:17:00.748Z,23.08
2022-08-05T23:20:03.007Z,23.07
2022-08-05T23:23:08.093Z,23.01
2022-08-05T23:26:14.055Z,22.99
2022-08-05T23:29:17.299Z,22.98
2022-08-05T23:32:22.873Z,22.99
2022-08-05T23:35:25.263Z,23.02
2022-08-05T23:38:29.362Z,23.03
2022-08-05T23:41:30.448Z,23.03
2022-08-05T23:44:36.482Z,23.01
2022-08-05T23:47:37.663Z,22.98
2022-08-05T23:50:52.641Z,22.97
2022-08-05T23:53:52.374Z,22.99
2022-08-05T23:57:04.131Z,23.02
